Time;durP1;ratioP1;P1;durP2;ratioP2;P2;SDS_P1;SDS_P2;PMS_P1;PMS_P2;Temp;Humidity;BMP_temperature;BMP_pressure;BME280_temperature;BME280_humidity;BME280_pressure;Samples;Min_cycle;Max_cycle;Signal;HPM_P1;HPM_P2
2023/08/02 00:02:54;;;;;;;;;;;;;;;16.5;81.00586;100091.4;;;;-68
2023/08/02 00:07:08;;;;;;;0.2;0;;;;;;;;;;;;;-69
2023/08/02 00:07:55;;;;;;;;;;;;;;;16.48;81.03613;100086.5;;;;-68
2023/08/02 00:12:56;;;;;;;;;;;;;;;16.46;80.79688;100088.9;;;;-69
2023/08/02 00:17:55;;;;;;;;;;;;;;;16.43;81.40918;100083.8;;;;-69
2023/08/02 00:22:55;;;;;;;;;;;;;;;16.43;82.02539;100075.3;;;;-69
2023/08/02 00:27:55;;;;;;;;;;;;;;;16.42;81.44043;100071.8;;;;-69
2023/08/02 00:32:57;;;;;;;;;;;;;;;16.39;81.73633;100073.3;;;;-68
2023/08/02 00:37:10;;;;;;;0.2;0;;;;;;;;;;;;;-69
2023/08/02 00:37:55;;;;;;;;;;;;;;;16.4;82.26563;100063.3;;;;-70
2023/08/02 00:42:55;;;;;;;;;;;;;;;16.4;82.27637;100064.1;;;;-70
2023/08/02 00:47:55;;;;;;;;;;;;;;;16.38;82.02637;100055.5;;;;-69
2023/08/02 00:52:55;;;;;;;;;;;;;;;16.41;83.25488;100054;;;;-69
2023/08/02 00:57:56;;;;;;;;;;;;;;;16.42;82.07813;100046.2;;;;-68
2023/08/02 01:02:55;;;;;;;;;;;;;;;16.45;81.89453;100056.3;;;;-68
2023/08/02 01:07:18;;;;;;;0.2;0.1;;;;;;;;;;;;;-69
2023/08/02 01:07:57;;;;;;;;;;;;;;;16.44;82.20508;100041.1;;;;-68
2023/08/02 01:12:57;;;;;;;;;;;;;;;16.43;82.41797;100040.1;;;;-68
2023/08/02 01:17:57;;;;;;;;;;;;;;;16.42;83.86133;100027.4;;;;-69
2023/08/02 01:22:57;;;;;;;;;;;;;;;16.42;82.53906;100028.7;;;;-68
2023/08/02 01:27:57;;;;;;;;;;;;;;;16.4;82.87012;100006.8;;;;-69
2023/08/02 01:32:55;;;;;;;;;;;;;;;16.38;82.76758;100001.1;;;;-69
2023/08/02 01:37:15;;;;;;;0.2;0;;;;;;;;;;;;;-72
2023/08/02 01:37:55;;;;;;;;;;;;;;;16.33;83.64258;99990.27;;;;-68
2023/08/02 01:42:55;;;;;;;;;;;;;;;16.3;83.77148;99980.45;;;;-69
2023/08/02 01:47:55;;;;;;;;;;;;;;;16.26;83.5166;99968.29;;;;-69
2023/08/02 01:52:55;;;;;;;;;;;;;;;16.22;84.31641;99977.77;;;;-68
2023/08/02 01:57:55;;;;;;;;;;;;;;;16.21;84.80664;99964.55;;;;-69
2023/08/02 02:02:57;;;;;;;;;;;;;;;16.19;84.23047;99952;;;;-68
2023/08/02 02:07:18;;;;;;;0.2;0;;;;;;;;;;;;;-70
2023/08/02 02:07:55;;;;;;;;;;;;;;;16.19;84.15234;99939;;;;-68
2023/08/02 02:12:55;;;;;;;;;;;;;;;16.2;84.99512;99926.34;;;;-68
2023/08/02 02:17:55;;;;;;;;;;;;;;;16.21;85.66895;99920.57;;;;-67
2023/08/02 02:22:57;;;;;;;;;;;;;;;16.19;85.71973;99909.95;;;;-68
2023/08/02 02:27:54;;;;;;;;;;;;;;;16.17;85.70508;99904.72;;;;-68
2023/08/02 02:32:55;;;;;;;;;;;;;;;16.17;85.07813;99900.3;;;;-69
2023/08/02 02:37:20;;;;;;;0.2;0;;;;;;;;;;;;;-70
2023/08/02 02:37:54;;;;;;;;;;;;;;;16.15;85.51074;99894.47;;;;-68
2023/08/02 02:42:58;;;;;;;;;;;;;;;16.16;86.48633;99891.48;;;;-68
2023/08/02 02:47:55;;;;;;;;;;;;;;;16.13;86.70605;99876.15;;;;-70
2023/08/02 02:52:55;;;;;;;;;;;;;;;16.12;86.43262;99870.32;;;;-70
2023/08/02 02:57:55;;;;;;;;;;;;;;;16.09;85.86816;99864.02;;;;-69
2023/08/02 03:02:55;;;;;;;;;;;;;;;16.05;86.19434;99845.73;;;;-69
2023/08/02 03:07:23;;;;;;;0.2;0.1;;;;;;;;;;;;;-68
2023/08/02 03:07:55;;;;;;;;;;;;;;;16.03;86.89941;99833.97;;;;-69
2023/08/02 03:12:55;;;;;;;;;;;;;;;16;86.34375;99832.81;;;;-69
2023/08/02 03:17:55;;;;;;;;;;;;;;;15.95;86.66895;99828.38;;;;-70
2023/08/02 03:22:55;;;;;;;;;;;;;;;15.94;86.11914;99823.34;;;;-67
2023/08/02 03:27:55;;;;;;;;;;;;;;;15.89;86.08594;99811.71;;;;-69
2023/08/02 03:32:54;;;;;;;;;;;;;;;15.86;85.55566;99794.34;;;;-69
2023/08/02 03:37:26;;;;;;;0.2;0;;;;;;;;;;;;;-69
2023/08/02 03:37:54;;;;;;;;;;;;;;;15.83;85.99609;99781.73;;;;-69
2023/08/02 03:42:55;;;;;;;;;;;;;;;15.78;87.60742;99777.01;;;;-68
2023/08/02 03:47:54;;;;;;;;;;;;;;;15.73;86.25781;99781.56;;;;-69
2023/08/02 03:52:55;;;;;;;;;;;;;;;15.66;86.58984;99761.84;;;;-69
2023/08/02 03:57:55;;;;;;;;;;;;;;;15.61;86.97168;99750.05;;;;-68
2023/08/02 04:02:55;;;;;;;;;;;;;;;15.58;86.93262;99730.19;;;;-69
2023/08/02 04:07:28;;;;;;;0.2;0;;;;;;;;;;;;;-70
2023/08/02 04:07:55;;;;;;;;;;;;;;;15.56;86.62793;99714.38;;;;-69
2023/08/02 04:12:56;;;;;;;;;;;;;;;15.55;86.55664;99719.38;;;;-69
2023/08/02 04:17:55;;;;;;;;;;;;;;;15.52;86.85156;99710.48;;;;-68
2023/08/02 04:22:54;;;;;;;;;;;;;;;15.52;86.50684;99699.63;;;;-69
2023/08/02 04:27:54;;;;;;;;;;;;;;;15.54;87.29297;99693.95;;;;-70
2023/08/02 04:32:55;;;;;;;;;;;;;;;15.53;87.02246;99675.47;;;;-69
2023/08/02 04:37:31;;;;;;;0.2;0;;;;;;;;;;;;;-70
2023/08/02 04:37:55;;;;;;;;;;;;;;;15.56;87.65332;99666.59;;;;-68
2023/08/02 04:42:55;;;;;;;;;;;;;;;15.59;87.53613;99655.84;;;;-69
2023/08/02 04:47:54;;;;;;;;;;;;;;;15.62;87.55273;99636.86;;;;-69
2023/08/02 04:52:55;;;;;;;;;;;;;;;15.65;87.39258;99620.21;;;;-68
2023/08/02 04:57:55;;;;;;;;;;;;;;;15.66;88.85742;99613.28;;;;-69
2023/08/02 05:02:55;;;;;;;;;;;;;;;15.69;89.32031;99596.55;;;;-71
2023/08/02 05:07:34;;;;;;;0.2;0.1;;;;;;;;;;;;;-68
2023/08/02 05:07:54;;;;;;;;;;;;;;;15.71;88.56641;99590.72;;;;-69
2023/08/02 05:12:55;;;;;;;;;;;;;;;15.74;88.79492;99577.89;;;;-69
2023/08/02 05:17:54;;;;;;;;;;;;;;;15.76;88.81055;99574.08;;;;-69
2023/08/02 05:22:56;;;;;;;;;;;;;;;15.8;88.91992;99562.5;;;;-68
2023/08/02 05:27:55;;;;;;;;;;;;;;;15.82;90.0625;99550.84;;;;-69
2023/08/02 05:32:55;;;;;;;;;;;;;;;15.83;90.0752;99543.86;;;;-68
2023/08/02 05:37:35;;;;;;;0.2;0.1;;;;;;;;;;;;;-69
2023/08/02 05:37:55;;;;;;;;;;;;;;;15.83;90.18555;99530.97;;;;-69
2023/08/02 05:42:54;;;;;;;;;;;;;;;15.85;91.03809;99527.91;;;;-69
2023/08/02 05:47:56;;;;;;;;;;;;;;;15.86;92.54785;99511.84;;;;-69
2023/08/02 05:52:54;;;;;;;;;;;;;;;15.84;91.80762;99509.22;;;;-68
2023/08/02 05:57:54;;;;;;;;;;;;;;;15.86;91.99023;99494.8;;;;-69
2023/08/02 06:02:54;;;;;;;;;;;;;;;15.86;91.58887;99480.32;;;;-70
2023/08/02 06:07:38;;;;;;;0.3;0.2;;;;;;;;;;;;;-70
2023/08/02 06:07:55;;;;;;;;;;;;;;;15.87;91.28711;99481.41;;;;-70
2023/08/02 06:12:55;;;;;;;;;;;;;;;15.86;91.03027;99467.04;;;;-69
2023/08/02 06:17:54;;;;;;;;;;;;;;;15.86;91.15332;99460.14;;;;-69
2023/08/02 06:22:55;;;;;;;;;;;;;;;15.86;91.33203;99461.3;;;;-68
2023/08/02 06:27:55;;;;;;;;;;;;;;;15.86;92.21387;99455.48;;;;-69
2023/08/02 06:32:55;;;;;;;;;;;;;;;15.86;91.92285;99434.59;;;;-72
2023/08/02 06:37:40;;;;;;;0.2;0;;;;;;;;;;;;;-69
2023/08/02 06:37:54;;;;;;;;;;;;;;;15.84;93.23633;99407.16;;;;-72
2023/08/02 06:42:55;;;;;;;;;;;;;;;15.87;93.39844;99404.54;;;;-71
2023/08/02 06:47:56;;;;;;;;;;;;;;;15.89;93.76953;99391.72;;;;-71
2023/08/02 06:52:55;;;;;;;;;;;;;;;15.87;94.41504;99371.18;;;;-72
2023/08/02 06:57:56;;;;;;;;;;;;;;;15.88;94.20508;99347.94;;;;-70
2023/08/02 07:02:54;;;;;;;;;;;;;;;15.89;94.4834;99331.55;;;;-71
2023/08/02 07:07:43;;;;;;;0.2;0.1;;;;;;;;;;;;;-70
2023/08/02 07:07:54;;;;;;;;;;;;;;;15.89;94.71973;99313.05;;;;-72
2023/08/02 07:12:55;;;;;;;;;;;;;;;15.89;94.39648;99303.89;;;;-71
2023/08/02 07:17:54;;;;;;;;;;;;;;;15.89;95.29785;99286.5;;;;-70
2023/08/02 07:22:55;;;;;;;;;;;;;;;15.93;95.26074;99270.24;;;;-71
2023/08/02 07:27:55;;;;;;;;;;;;;;;15.96;95.80469;99255.56;;;;-73
2023/08/02 07:32:54;;;;;;;;;;;;;;;15.97;96.70898;99250.01;;;;-70
2023/08/02 07:37:45;;;;;;;0.2;0;;;;;;;;;;;;;-70
2023/08/02 07:37:57;;;;;;;;;;;;;;;16.01;96.51855;99227.3;;;;-72
2023/08/02 07:42:54;;;;;;;;;;;;;;;15.96;97.40918;99214.28;;;;-71
2023/08/02 07:47:56;;;;;;;;;;;;;;;16.02;96.60938;99208.38;;;;-70
2023/08/02 07:52:56;;;;;;;;;;;;;;;16.07;97.75684;99201.82;;;;-70
2023/08/02 07:57:54;;;;;;;;;;;;;;;16.11;97.80957;99198.88;;;;-70
2023/08/02 08:02:55;;;;;;;;;;;;;;;16.12;97.11133;99184.95;;;;-70
2023/08/02 08:07:49;;;;;;;1.4;1;;;;;;;;;;;;;-70
2023/08/02 08:07:58;;;;;;;;;;;;;;;16.14;98.64258;99188.27;;;;-70
2023/08/02 08:12:54;;;;;;;;;;;;;;;16.17;98.25781;99176.06;;;;-70
2023/08/02 08:17:54;;;;;;;;;;;;;;;16.22;97.72363;99156.94;;;;-70
2023/08/02 08:22:54;;;;;;;;;;;;;;;16.26;97.7207;99146.21;;;;-71
2023/08/02 08:27:55;;;;;;;;;;;;;;;16.31;99.08008;99138.88;;;;-70
2023/08/02 08:32:55;;;;;;;;;;;;;;;16.32;97.94434;99135.07;;;;-72
2023/08/02 08:37:52;;;;;;;0.2;0.1;;;;;;;;;;;;;-72
2023/08/02 08:38:02;;;;;;;;;;;;;;;16.32;100;99111.13;;;;-71
2023/08/02 08:42:56;;;;;;;;;;;;;;;16.35;99.49316;99104.34;;;;-71
2023/08/02 08:47:55;;;;;;;;;;;;;;;16.38;99.69824;99084.52;;;;-72
2023/08/02 08:52:57;;;;;;;;;;;;;;;16.4;99.91602;99074.13;;;;-73
2023/08/02 08:57:55;;;;;;;;;;;;;;;16.43;100;99077.55;;;;-72
2023/08/02 09:02:55;;;;;;;;;;;;;;;16.44;99.95801;99067;;;;-71
2023/08/02 09:07:59;;;;;;;0.2;0;;;;;;;;;;;;;-73
2023/08/02 09:08:09;;;;;;;;;;;;;;;16.47;100;99052.03;;;;-72
2023/08/02 09:12:55;;;;;;;;;;;;;;;16.5;100;99045.48;;;;-71
2023/08/02 09:17:55;;;;;;;;;;;;;;;16.59;100;99038.05;;;;-73
2023/08/02 09:23:10;;;;;;;;;;;;;;;16.64;100;99032.22;;;;-71
2023/08/02 09:27:55;;;;;;;;;;;;;;;16.69;100;99040.97;;;;-71
2023/08/02 09:33:00;;;;;;;;;;;;;;;16.73;100;99037.38;;;;-70
2023/08/02 09:37:55;;;;;;;;;;;;;;;16.82;100;99033.23;;;;-72
2023/08/02 09:38:04;;;;;;;0.2;0;;;;;;;;;;;;;-72
2023/08/02 09:43:00;;;;;;;;;;;;;;;16.92;100;99022.12;;;;-69
2023/08/02 09:47:58;;;;;;;;;;;;;;;17.15;100;99016.09;;;;-69
2023/08/02 09:52:55;;;;;;;;;;;;;;;17.36;100;99008.94;;;;-70
2023/08/02 09:57:55;;;;;;;;;;;;;;;17.55;100;99001.76;;;;-69
2023/08/02 10:02:55;;;;;;;;;;;;;;;17.75;100;98985.48;;;;-70
2023/08/02 10:07:56;;;;;;;;;;;;;;;17.99;100;98977.62;;;;-69
2023/08/02 10:08:06;;;;;;;0.2;0.1;;;;;;;;;;;;;-69
2023/08/02 10:12:56;;;;;;;;;;;;;;;18.38;100;98970.25;;;;-69
2023/08/02 10:17:55;;;;;;;;;;;;;;;18.76;100;98979.95;;;;-69
2023/08/02 10:22:55;;;;;;;;;;;;;;;18.8;100;98977.72;;;;-69
2023/08/02 10:27:55;;;;;;;;;;;;;;;18.62;100;98983.3;;;;-68
2023/08/02 10:33:12;;;;;;;;;;;;;;;18.71;100;98979.16;;;;-68
2023/08/02 10:37:58;;;;;;;;;;;;;;;18.81;100;98981.48;;;;-69
2023/08/02 10:38:07;;;;;;;0.3;0.1;;;;;;;;;;;;;-69
2023/08/02 10:43:10;;;;;;;;;;;;;;;18.73;100;98970.63;;;;-69
2023/08/02 10:47:54;;;;;;;;;;;;;;;18.81;100;98958.45;;;;-68
2023/08/02 10:53:04;;;;;;;;;;;;;;;19.08;100;98944.29;;;;-68
2023/08/02 10:58:08;;;;;;;;;;;;;;;19.25;100;98942.95;;;;-68
2023/08/02 11:02:57;;;;;;;;;;;;;;;19.35;100;98926.77;;;;-69
2023/08/02 11:08:07;;;;;;;;;;;;;;;19.56;100;98928.97;;;;-70
2023/08/02 11:08:17;;;;;;;0.2;0;;;;;;;;;;;;;-70
2023/08/02 11:12:59;;;;;;;;;;;;;;;19.66;100;98933.96;;;;-68
2023/08/02 11:17:57;;;;;;;;;;;;;;;19.75;100;98922.82;;;;-68
2023/08/02 11:22:57;;;;;;;;;;;;;;;19.74;100;98911.02;;;;-68
2023/08/02 11:28:02;;;;;;;;;;;;;;;19.85;99.96973;98888.5;;;;-69
2023/08/02 11:32:55;;;;;;;;;;;;;;;20.05;97.36133;98885.33;;;;-68
2023/08/02 11:37:55;;;;;;;;;;;;;;;20.31;96.88867;98882.95;;;;-69
2023/08/02 11:38:08;;;;;;;0.2;0;;;;;;;;;;;;;-68
2023/08/02 11:42:57;;;;;;;;;;;;;;;20.75;98.83301;98886.55;;;;-69
2023/08/02 11:47:54;;;;;;;;;;;;;;;21.13;97.19043;98888.52;;;;-69
2023/08/02 11:52:55;;;;;;;;;;;;;;;21.26;91.83398;98896.83;;;;-69
2023/08/02 11:57:55;;;;;;;;;;;;;;;21.28;90.70605;98892.74;;;;-69
2023/08/02 12:02:54;;;;;;;;;;;;;;;21.3;89.35254;98894.22;;;;-69
2023/08/02 12:07:56;;;;;;;;;;;;;;;21.23;83.86328;98892.93;;;;-69
2023/08/02 12:08:19;;;;;;;0.2;0;;;;;;;;;;;;;-70
2023/08/02 12:12:56;;;;;;;;;;;;;;;21.3;84.7373;98880.95;;;;-69
2023/08/02 12:18:04;;;;;;;;;;;;;;;21.48;80.27148;98891.27;;;;-69
2023/08/02 12:22:54;;;;;;;;;;;;;;;21.53;80.1416;98890.16;;;;-70
2023/08/02 12:28:09;;;;;;;;;;;;;;;21.74;78.6709;98887.13;;;;-69
2023/08/02 12:32:54;;;;;;;;;;;;;;;21.74;79.36328;98891.52;;;;-72
2023/08/02 12:37:54;;;;;;;;;;;;;;;21.85;77.99707;98886.27;;;;-70
2023/08/02 12:38:14;;;;;;;0.2;0.1;;;;;;;;;;;;;-71
2023/08/02 12:42:54;;;;;;;;;;;;;;;21.99;75.13477;98880.93;;;;-72
2023/08/02 12:47:54;;;;;;;;;;;;;;;22.01;76.66211;98897.27;;;;-70
2023/08/02 12:52:54;;;;;;;;;;;;;;;21.89;74.70801;98905.61;;;;-73
2023/08/02 12:57:56;;;;;;;;;;;;;;;21.88;75.27441;98914.91;;;;-73
2023/08/02 13:02:54;;;;;;;;;;;;;;;21.89;73.13672;98917.96;;;;-71
2023/08/02 13:07:54;;;;;;;;;;;;;;;21.89;73.71875;98929.3;;;;-72
2023/08/02 13:08:18;;;;;;;0.2;0;;;;;;;;;;;;;-71
2023/08/02 13:12:55;;;;;;;;;;;;;;;21.85;72.86914;98912.3;;;;-72
2023/08/02 13:17:54;;;;;;;;;;;;;;;21.73;72.69141;98929.87;;;;-72
2023/08/02 13:22:54;;;;;;;;;;;;;;;21.57;73.45996;98926.14;;;;-70
2023/08/02 13:27:54;;;;;;;;;;;;;;;21.63;73.41211;98926.45;;;;-72
2023/08/02 13:32:54;;;;;;;;;;;;;;;21.65;73.51953;98954.28;;;;-71
2023/08/02 13:37:55;;;;;;;;;;;;;;;21.76;72.83301;98921.84;;;;-71
2023/08/02 13:38:22;;;;;;;0.3;0.2;;;;;;;;;;;;;-71
2023/08/02 13:42:55;;;;;;;;;;;;;;;21.88;72.05566;98937.58;;;;-71
2023/08/02 13:47:55;;;;;;;;;;;;;;;21.94;70.75488;98923.21;;;;-72
2023/08/02 13:52:55;;;;;;;;;;;;;;;22.11;71.13574;98922.06;;;;-72
2023/08/02 13:57:54;;;;;;;;;;;;;;;22.22;70.25293;98930.99;;;;-73
2023/08/02 14:02:55;;;;;;;;;;;;;;;22.14;70.37695;98932.26;;;;-72
2023/08/02 14:07:55;;;;;;;;;;;;;;;22.14;70.61621;98929.66;;;;-71
2023/08/02 14:08:26;;;;;;;0.4;0.3;;;;;;;;;;;;;-72
2023/08/02 14:12:58;;;;;;;;;;;;;;;22.18;70.47363;98917.58;;;;-74
2023/08/02 14:17:54;;;;;;;;;;;;;;;22.28;70.44531;98911.39;;;;-71
2023/08/02 14:22:54;;;;;;;;;;;;;;;22.21;68.80371;98921.81;;;;-71
2023/08/02 14:27:55;;;;;;;;;;;;;;;22.29;71.13086;98926.94;;;;-72
2023/08/02 14:32:54;;;;;;;;;;;;;;;22.23;68.95508;98910.67;;;;-72
2023/08/02 14:37:57;;;;;;;;;;;;;;;22.17;68.81934;98923.36;;;;-71
2023/08/02 14:38:32;;;;;;;0.2;0;;;;;;;;;;;;;-72
2023/08/02 14:42:54;;;;;;;;;;;;;;;22.11;68.56055;98931.3;;;;-72
2023/08/02 14:47:54;;;;;;;;;;;;;;;22.08;67.57422;98926.48;;;;-72
2023/08/02 14:52:55;;;;;;;;;;;;;;;22.06;66.70605;98932.52;;;;-72
2023/08/02 14:57:56;;;;;;;;;;;;;;;22;66.50293;98935.8;;;;-74
2023/08/02 15:02:54;;;;;;;;;;;;;;;22.18;66.28906;98928.84;;;;-71
2023/08/02 15:07:54;;;;;;;;;;;;;;;21.97;66.38379;98925.52;;;;-70
2023/08/02 15:08:33;;;;;;;0.2;0.1;;;;;;;;;;;;;-71
2023/08/02 15:12:54;;;;;;;;;;;;;;;21.92;67.5625;98921.52;;;;-71
2023/08/02 15:17:54;;;;;;;;;;;;;;;21.79;67.05176;98929.33;;;;-73
2023/08/02 15:22:55;;;;;;;;;;;;;;;21.77;67.65332;98927.08;;;;-72
2023/08/02 15:27:54;;;;;;;;;;;;;;;21.64;67.13281;98921.27;;;;-70
2023/08/02 15:32:54;;;;;;;;;;;;;;;21.68;67.36621;98920.97;;;;-72
2023/08/02 15:37:54;;;;;;;;;;;;;;;21.61;67.48047;98927.95;;;;-71
2023/08/02 15:38:38;;;;;;;0.2;0;;;;;;;;;;;;;-71
2023/08/02 15:42:54;;;;;;;;;;;;;;;21.57;66.78027;98941.01;;;;-71
2023/08/02 15:47:54;;;;;;;;;;;;;;;21.39;67.15234;98945.17;;;;-68
2023/08/02 15:52:54;;;;;;;;;;;;;;;21.36;67.50195;98947.47;;;;-69
2023/08/02 15:57:54;;;;;;;;;;;;;;;21.29;68.13965;98955.2;;;;-68
2023/08/02 16:02:55;;;;;;;;;;;;;;;21.25;67.80273;98947.91;;;;-67
2023/08/02 16:07:55;;;;;;;;;;;;;;;21.21;68.75391;98953.23;;;;-68
2023/08/02 16:08:41;;;;;;;0.4;0.2;;;;;;;;;;;;;-68
2023/08/02 16:12:55;;;;;;;;;;;;;;;21.08;68.87988;98961.66;;;;-69
2023/08/02 16:17:54;;;;;;;;;;;;;;;20.96;68.49707;98951.59;;;;-71
2023/08/02 16:22:55;;;;;;;;;;;;;;;20.96;68.62402;98955.45;;;;-70
2023/08/02 16:27:55;;;;;;;;;;;;;;;20.95;68.98438;98949.05;;;;-71
2023/08/02 16:32:57;;;;;;;;;;;;;;;20.93;69.6416;98942.41;;;;-72
2023/08/02 16:37:57;;;;;;;;;;;;;;;21.02;69.51953;98952.95;;;;-70
2023/08/02 16:38:44;;;;;;;0.3;0.2;;;;;;;;;;;;;-70
2023/08/02 16:42:54;;;;;;;;;;;;;;;20.96;69.75879;98934.99;;;;-71
2023/08/02 16:47:54;;;;;;;;;;;;;;;20.92;70.25391;98938.13;;;;-71
2023/08/02 16:52:54;;;;;;;;;;;;;;;20.96;69.97559;98928.88;;;;-74
2023/08/02 16:57:55;;;;;;;;;;;;;;;20.86;70.50488;98927.77;;;;-69
2023/08/02 17:02:55;;;;;;;;;;;;;;;20.78;70.66211;98935.53;;;;-70
2023/08/02 17:07:54;;;;;;;;;;;;;;;20.63;70.97852;98935.11;;;;-68
2023/08/02 17:08:48;;;;;;;0.2;0;;;;;;;;;;;;;-68
2023/08/02 17:12:54;;;;;;;;;;;;;;;20.56;71.23145;98949.75;;;;-70
2023/08/02 17:17:54;;;;;;;;;;;;;;;20.27;73.41895;98966.72;;;;-68
2023/08/02 17:22:55;;;;;;;;;;;;;;;20.09;75.40527;98956.52;;;;-68
2023/08/02 17:27:54;;;;;;;;;;;;;;;19.83;76.86523;98949.63;;;;-68
2023/08/02 17:32:56;;;;;;;;;;;;;;;19.66;76.96191;98948.27;;;;-68
2023/08/02 17:38:00;;;;;;;;;;;;;;;19.55;77.03223;98949.59;;;;-69
2023/08/02 17:38:51;;;;;;;0.2;0;;;;;;;;;;;;;-68
2023/08/02 17:42:54;;;;;;;;;;;;;;;19.47;77.73145;98949.97;;;;-68
2023/08/02 17:47:56;;;;;;;;;;;;;;;19.27;79.0293;98941.66;;;;-69
2023/08/02 17:52:54;;;;;;;;;;;;;;;19.16;79.42773;98942.5;;;;-67
2023/08/02 17:57:54;;;;;;;;;;;;;;;19.06;78.82129;98936.39;;;;-69
2023/08/02 18:02:56;;;;;;;;;;;;;;;18.98;78.75195;98937.3;;;;-69
2023/08/02 18:07:55;;;;;;;;;;;;;;;18.86;78.56152;98932.77;;;;-70
2023/08/02 18:08:55;;;;;;;0.2;0;;;;;;;;;;;;;-68
2023/08/02 18:12:54;;;;;;;;;;;;;;;18.82;78.01172;98924.77;;;;-68
2023/08/02 18:17:54;;;;;;;;;;;;;;;18.74;77.8291;98920.16;;;;-69
2023/08/02 18:22:55;;;;;;;;;;;;;;;18.68;78.48438;98908.39;;;;-69
2023/08/02 18:27:55;;;;;;;;;;;;;;;18.63;79.15137;98906.02;;;;-70
2023/08/02 18:32:56;;;;;;;;;;;;;;;18.58;78.58008;98902.73;;;;-69
2023/08/02 18:37:55;;;;;;;;;;;;;;;18.5;78.94824;98898.61;;;;-69
2023/08/02 18:39:01;;;;;;;0.2;0;;;;;;;;;;;;;-69
2023/08/02 18:42:55;;;;;;;;;;;;;;;18.4;79.38281;98892.53;;;;-69
2023/08/02 18:47:54;;;;;;;;;;;;;;;18.34;79.7998;98896.46;;;;-69
2023/08/02 18:52:54;;;;;;;;;;;;;;;18.26;80.17969;98905.11;;;;-68
2023/08/02 18:57:54;;;;;;;;;;;;;;;18.19;79.87305;98903.66;;;;-70
2023/08/02 19:02:54;;;;;;;;;;;;;;;18.1;81.38965;98905.88;;;;-69
2023/08/02 19:07:54;;;;;;;;;;;;;;;18;81.03223;98898.98;;;;-69
2023/08/02 19:09:01;;;;;;;0.5;0.2;;;;;;;;;;;;;-70
2023/08/02 19:12:58;;;;;;;;;;;;;;;17.91;82.81543;98898.73;;;;-69
2023/08/02 19:17:54;;;;;;;;;;;;;;;17.83;82.43066;98905.03;;;;-71
2023/08/02 19:22:54;;;;;;;;;;;;;;;17.77;83.56543;98897.44;;;;-70
2023/08/02 19:27:55;;;;;;;;;;;;;;;17.73;82.92871;98899.73;;;;-70
2023/08/02 19:32:54;;;;;;;;;;;;;;;17.67;83.66016;98887.66;;;;-69
2023/08/02 19:37:55;;;;;;;;;;;;;;;17.63;84.52832;98890.38;;;;-70
2023/08/02 19:39:04;;;;;;;0.2;0;;;;;;;;;;;;;-68
2023/08/02 19:42:54;;;;;;;;;;;;;;;17.57;85.03125;98888.36;;;;-69
2023/08/02 19:47:54;;;;;;;;;;;;;;;17.5;86.03027;98882.34;;;;-69
2023/08/02 19:52:54;;;;;;;;;;;;;;;17.49;86.51855;98881.55;;;;-70
2023/08/02 19:57:54;;;;;;;;;;;;;;;17.44;86.53418;98879.16;;;;-68
2023/08/02 20:02:54;;;;;;;;;;;;;;;17.43;86.50977;98868.45;;;;-69
2023/08/02 20:07:54;;;;;;;;;;;;;;;17.41;88.16504;98864.56;;;;-71
2023/08/02 20:09:07;;;;;;;0.2;0.1;;;;;;;;;;;;;-70
2023/08/02 20:12:54;;;;;;;;;;;;;;;17.36;87.14648;98858.47;;;;-71
2023/08/02 20:17:58;;;;;;;;;;;;;;;17.31;87.11523;98858.45;;;;-72
2023/08/02 20:22:54;;;;;;;;;;;;;;;17.29;87.05566;98863.2;;;;-70
2023/08/02 20:27:54;;;;;;;;;;;;;;;17.27;87.56641;98851.23;;;;-70
2023/08/02 20:32:57;;;;;;;;;;;;;;;17.24;86.88574;98847.98;;;;-70
2023/08/02 20:37:54;;;;;;;;;;;;;;;17.23;88.11719;98860.86;;;;-69
2023/08/02 20:39:09;;;;;;;0.2;0;;;;;;;;;;;;;-69
2023/08/02 20:43:00;;;;;;;;;;;;;;;17.2;87.85449;98855.02;;;;-69
2023/08/02 20:47:55;;;;;;;;;;;;;;;17.19;89.05176;98849.25;;;;-69
2023/08/02 20:52:54;;;;;;;;;;;;;;;17.19;89.1748;98850.67;;;;-68
2023/08/02 20:57:55;;;;;;;;;;;;;;;17.19;89.23047;98847.58;;;;-69
2023/08/02 21:02:54;;;;;;;;;;;;;;;17.17;89.77637;98845.13;;;;-69
2023/08/02 21:07:54;;;;;;;;;;;;;;;17.18;91.66113;98831.3;;;;-70
2023/08/02 21:09:11;;;;;;;0.2;0;;;;;;;;;;;;;-69
2023/08/02 21:12:54;;;;;;;;;;;;;;;17.17;90.3252;98831.28;;;;-72
2023/08/02 21:17:54;;;;;;;;;;;;;;;17.14;90.82129;98830.44;;;;-69
2023/08/02 21:22:54;;;;;;;;;;;;;;;17.11;90;98816.69;;;;-68
2023/08/02 21:27:56;;;;;;;;;;;;;;;17.07;90.57324;98812.89;;;;-70
2023/08/02 21:32:54;;;;;;;;;;;;;;;17.05;90.06738;98810.42;;;;-68
2023/08/02 21:37:57;;;;;;;;;;;;;;;17.02;89.79004;98805.91;;;;-69
2023/08/02 21:39:14;;;;;;;0.4;0.3;;;;;;;;;;;;;-69
2023/08/02 21:42:55;;;;;;;;;;;;;;;16.98;90.08691;98798.56;;;;-69
2023/08/02 21:47:54;;;;;;;;;;;;;;;16.99;90.6123;98792.56;;;;-69
2023/08/02 21:52:55;;;;;;;;;;;;;;;16.94;91.17383;98798.69;;;;-70
2023/08/02 21:57:55;;;;;;;;;;;;;;;16.94;92.34863;98796.84;;;;-70
2023/08/02 22:02:58;;;;;;;;;;;;;;;16.93;91.88867;98791.34;;;;-68
2023/08/02 22:07:54;;;;;;;;;;;;;;;16.94;92.1123;98781.26;;;;-69
2023/08/02 22:09:17;;;;;;;0.2;0;;;;;;;;;;;;;-69
2023/08/02 22:12:54;;;;;;;;;;;;;;;16.93;91.09375;98775.47;;;;-68
2023/08/02 22:17:56;;;;;;;;;;;;;;;16.92;91.20215;98788.17;;;;-69
2023/08/02 22:22:54;;;;;;;;;;;;;;;16.9;91.56934;98787.41;;;;-69
2023/08/02 22:27:54;;;;;;;;;;;;;;;16.91;91.09961;98789.92;;;;-69
2023/08/02 22:32:55;;;;;;;;;;;;;;;16.89;91.4873;98784.03;;;;-69
2023/08/02 22:37:54;;;;;;;;;;;;;;;16.88;91.92188;98786.5;;;;-69
2023/08/02 22:39:19;;;;;;;0.2;0;;;;;;;;;;;;;-69
2023/08/02 22:42:55;;;;;;;;;;;;;;;16.87;91.90918;98780.91;;;;-68
2023/08/02 22:47:54;;;;;;;;;;;;;;;16.87;91.94238;98779.33;;;;-69
2023/08/02 22:52:54;;;;;;;;;;;;;;;16.87;92.45508;98779.63;;;;-68
2023/08/02 22:57:55;;;;;;;;;;;;;;;16.87;91.97559;98777.33;;;;-69
2023/08/02 23:02:54;;;;;;;;;;;;;;;16.85;92.66602;98781.05;;;;-70
2023/08/02 23:07:54;;;;;;;;;;;;;;;16.86;92.24219;98781.28;;;;-69
2023/08/02 23:09:22;;;;;;;0.2;0;;;;;;;;;;;;;-69
2023/08/02 23:12:54;;;;;;;;;;;;;;;16.86;92.29883;98784.28;;;;-69
2023/08/02 23:17:54;;;;;;;;;;;;;;;16.85;92.8877;98784.04;;;;-69
2023/08/02 23:22:54;;;;;;;;;;;;;;;16.85;93.2002;98786.04;;;;-69
2023/08/02 23:27:54;;;;;;;;;;;;;;;16.83;94.16016;98786.66;;;;-69
2023/08/02 23:32:54;;;;;;;;;;;;;;;16.83;93.63477;98785.24;;;;-69
2023/08/02 23:37:54;;;;;;;;;;;;;;;16.83;93.48926;98792.24;;;;-68
2023/08/02 23:39:24;;;;;;;0.2;0;;;;;;;;;;;;;-68
2023/08/02 23:42:57;;;;;;;;;;;;;;;16.8;94.25488;98798.41;;;;-68
2023/08/02 23:47:56;;;;;;;;;;;;;;;16.78;92.69531;98798.68;;;;-70
2023/08/02 23:52:54;;;;;;;;;;;;;;;16.75;92.95801;98806.41;;;;-71
2023/08/02 23:57:54;;;;;;;;;;;;;;;16.74;92.375;98811.95;;;;-70
